WetterOnline ( https://www.wetteronline.de )

Wetter aktuell Kölnische Höfe

Aktuelles Wetter: Nürburg-Barweiler (488m)

6-stündlich | Neueste Meldungen
Ortszeit Temperatur Wetter
Fr, 15.11. 13:00 3.1° C bewölkt
Fr, 15.11. 7:00 1.3° C bedeckt
Fr, 15.11. 1:00 1.2° C bedeckt
Do, 14.11. 19:00 2.5° C bedeckt
Do, 14.11. 13:00 4.5° C wolkig
Do, 14.11. 7:00 2.7° C bedeckt
Do, 14.11. 1:00 3.1° C bewölkt
Mi, 13.11. 19:00 2.9° C bewölkt
Ortszeit Temperatur Wetter
Fr, 15.11. 17:00 3.2° C bewölkt
Fr, 15.11. 16:50 3.2° C bewölkt
Fr, 15.11. 16:40 3.2° C bewölkt
Fr, 15.11. 16:30 3.4° C bedeckt
Fr, 15.11. 16:20 3.4° C bedeckt
Fr, 15.11. 16:10 3.4° C bedeckt
Fr, 15.11. 16:00 3.4° C bedeckt
Fr, 15.11. 15:30 3.2° C bedeckt
Fr, 15.11. 15:00 3.2° C bewölkt
Fr, 15.11. 14:30 3.5° C bewölkt
Fr, 15.11. 14:00 3.4° C bewölkt
Ortszeit Relative Feuchte Sichtweite
Fr, 15.11. 13:00 81% 40 km
Fr, 15.11. 7:00 84% 45 km
Fr, 15.11. 1:00 88% 50 km
Do, 14.11. 19:00 83% 70 km
Do, 14.11. 13:00 72% 70 km
Do, 14.11. 7:00 89% 45 km
Do, 14.11. 1:00 93% 21 km
Mi, 13.11. 19:00 94% 10 km
Ortszeit Relative Feuchte Sichtweite
Fr, 15.11. 17:00 85% 40 km
Fr, 15.11. 16:50 85% -
Fr, 15.11. 16:40 85% -
Fr, 15.11. 16:30 84% 40 km
Fr, 15.11. 16:20 84% -
Fr, 15.11. 16:10 84% -
Fr, 15.11. 16:00 84% 35 km
Fr, 15.11. 15:30 83% 40 km
Fr, 15.11. 15:00 82% 30 km
Fr, 15.11. 14:30 81% 35 km
Fr, 15.11. 14:00 81% 35 km
Ortszeit Niederschlagsmenge Niederschlagsart
Fr, 15.11. 13:00 0.0 l/m2 in 6 Std. -
Fr, 15.11. 7:00 0.0 l/m2 in 12 Std. -
Fr, 15.11. 1:00 0.0 l/m2 in 6 Std. -
Do, 14.11. 19:00 0.0 l/m2 in 12 Std. -
Do, 14.11. 13:00 0.0 l/m2 in 6 Std. -
Do, 14.11. 7:00 0.1 l/m2 in 12 Std. -
Do, 14.11. 1:00 0.1 l/m2 in 6 Std. Regen
Mi, 13.11. 19:00 0.1 l/m2 in 12 Std. Regen
Ortszeit Niederschlagsmenge Niederschlagsart
Fr, 15.11. 17:00 0.0 l/m2 in 1 Std. -
Fr, 15.11. 16:50 keine Meldung -
Fr, 15.11. 16:40 keine Meldung -
Fr, 15.11. 16:30 0.0 l/m2 in 1 Std. -
Fr, 15.11. 16:20 keine Meldung -
Fr, 15.11. 16:10 keine Meldung -
Fr, 15.11. 16:00 0.0 l/m2 in 1 Std. -
Fr, 15.11. 15:30 0.0 l/m2 in 1 Std. -
Fr, 15.11. 15:00 0.0 l/m2 in 1 Std. -
Fr, 15.11. 14:30 0.0 l/m2 in 1 Std. -
Fr, 15.11. 14:00 0.0 l/m2 in 1 Std. -
Ortszeit Stärke Spitze Richtung
km/h Bft. km/h Grad Sektor
Fr, 15.11. 13:00 15 3 28 170° S
Fr, 15.11. 7:00 17 3 28 70° O
Fr, 15.11. 1:00 7 2 22 70° O
Do, 14.11. 19:00 11 2 25 70° O
Do, 14.11. 13:00 17 3 30 140° SO
Do, 14.11. 7:00 - - - - -
Do, 14.11. 1:00 - - - - -
Mi, 13.11. 19:00 - - - - -
Ortszeit Stärke Spitze Richtung
km/h Bft. km/h Grad Sektor
Fr, 15.11. 17:00 11 2 22 180° S
Fr, 15.11. 16:50 11 2 - 180° S
Fr, 15.11. 16:40 11 2 - 170° S
Fr, 15.11. 16:30 7 2 14 170° S
Fr, 15.11. 16:20 7 2 - 170° S
Fr, 15.11. 16:10 6 1 - 150° SO
Fr, 15.11. 16:00 7 2 29 170° S
Fr, 15.11. 15:30 13 3 28 200° S
Fr, 15.11. 15:00 14 3 29 200° S
Fr, 15.11. 14:30 11 2 29 190° S
Fr, 15.11. 14:00 9 2 26 180° S
Ortszeit Untergrenze Bedeckung Gattung
total tief tief mittel hoch
Fr, 15.11. 13:00 480 m 8/8 6/8 - - -
Fr, 15.11. 7:00 3300 m 8/8 8/8 - - -
Fr, 15.11. 1:00 2100 m 8/8 8/8 - - -
Do, 14.11. 19:00 3600 m 8/8 8/8 - - -
Do, 14.11. 13:00 1800 m 8/8 3/8 - - -
Do, 14.11. 7:00 330 m 8/8 8/8 - - -
Do, 14.11. 1:00 330 m 7/8 7/8 - - -
Mi, 13.11. 19:00 150 m 7/8 7/8 - - -
Ortszeit Bedeckungsgrad in Achtel und Wolkenuntergrenze
Fr, 15.11. 17:00 7(360m) 7(540m)
Fr, 15.11. 16:50 7(360m) 7(540m)
Fr, 15.11. 16:40 7(390m) 7(540m)
Fr, 15.11. 16:30 8(390m)
Fr, 15.11. 16:20 8(390m)
Fr, 15.11. 16:10 8(390m)
Fr, 15.11. 16:00 8(420m)
Fr, 15.11. 15:30 8(390m)
Fr, 15.11. 15:00 7(360m)
Fr, 15.11. 14:30 7(390m) 7(5100m)
Fr, 15.11. 14:00 6(420m) 7(4500m) 8(4800m)
Ortszeit Luftdruck NN (hPa) Tendenz (hPa in 3 Std.)
Fr, 15.11. 13:00 1000 + 1,7
Fr, 15.11. 7:00 997 - 1,8
Fr, 15.11. 1:00 1002 - 1,0
Do, 14.11. 19:00 1003 0,0
Do, 14.11. 13:00 1002 + 0,5
Do, 14.11. 7:00 1001 + 0,3
Do, 14.11. 1:00 1002 - 1,2
Mi, 13.11. 19:00 1004 + 0,3
Ortszeit Luftdruck NN (hPa) Tendenz (hPa in 3 Std.)
Fr, 15.11. 17:00 1002 + 1,6
Fr, 15.11. 16:50 1002 keine Meldung
Fr, 15.11. 16:40 1002 keine Meldung
Fr, 15.11. 16:30 1002 + 1,9
Fr, 15.11. 16:20 1002 keine Meldung
Fr, 15.11. 16:10 1002 keine Meldung
Fr, 15.11. 16:00 1002 + 1,4
Fr, 15.11. 15:30 1001 + 1,4
Fr, 15.11. 15:00 1001 + 1,5
Fr, 15.11. 14:30 1001 + 1,7
Fr, 15.11. 14:00 1001 + 1,3
Ortszeit Schneehöhe (cm)
Fr, 15.11. 13:00 0
Fr, 15.11. 7:00 0
Fr, 15.11. 1:00 0
Do, 14.11. 19:00 0
Do, 14.11. 13:00 0
Do, 14.11. 7:00 0
Do, 14.11. 1:00 0
Mi, 13.11. 19:00 0
Ortszeit Schneehöhe (cm)
Fr, 15.11. 17:00 0
Fr, 15.11. 16:50 0
Fr, 15.11. 16:40 0
Fr, 15.11. 16:30 0
Fr, 15.11. 16:20 0
Fr, 15.11. 16:10 0
Fr, 15.11. 16:00 0
Fr, 15.11. 15:30 0
Fr, 15.11. 15:00 0
Fr, 15.11. 14:30 0
Fr, 15.11. 14:00 0
Link zu dieser Seite / Seite empfehlen

Das Wetter in ...